Time;durP1;ratioP1;P1;durP2;ratioP2;P2;SDS_P1;SDS_P2;PMS_P1;PMS_P2;Temp;Humidity;BMP_temperature;BMP_pressure;BME280_temperature;BME280_humidity;BME280_pressure;Samples;Min_cycle;Max_cycle;Signal;HPM_P1;HPM_P2
2022/01/21 00:01:24;;;;;;;;;;;;;;;;;;5074427;28;20055;-78
2022/01/21 00:03:51;;;;;;;29.33;4.82;;;;;;;;;;5073670;28;19986;-70
2022/01/21 00:06:17;;;;;;;;;;;;;;;;;;5073880;28;20049;-73
2022/01/21 00:08:44;;;;;;;20.02;3.63;;;;;;;;;;5074146;28;19920;-72
2022/01/21 00:11:11;;;;;;;25.83;4.45;;;;;;;;;;5073388;28;20055;-72
2022/01/21 00:13:38;;;;;;;22.95;4.43;;;;;;;;;;5073473;28;20063;-84
2022/01/21 00:16:04;;;;;;;;;;;;;;;;;;5073479;28;20055;-73
2022/01/21 00:18:30;;;;;;;24.52;4.57;;;;;;;;;;5073520;28;19920;-77
2022/01/21 00:31:56;;;;;;;26.15;4.40;;;;;;;;;;5113730;28;20102;-69
2022/01/21 00:34:22;;;;;;;26.45;4.57;;;;;;;;;;5114288;28;20082;-70
2022/01/21 00:36:48;;;;;;;25.00;4.25;;;;;;;;;;5113827;28;20069;-70
2022/01/21 00:39:14;;;;;;;25.48;4.68;;;;;;;;;;5113916;28;20039;-71
2022/01/21 00:41:53;;;;;;;25.15;5.40;;;;;;;;;;5130608;27;20054;-70
2022/01/21 00:44:19;;;;;;;30.83;4.88;;;;;;;;;;5114390;28;20039;-70
2022/01/21 00:46:45;;;;;;;22.13;4.43;;;;;;;;;;5114414;28;20083;-70
2022/01/21 00:49:11;;;;;;;23.65;4.57;;;;;;;;;;5114209;28;20054;-69
2022/01/21 00:51:37;;;;;;;25.45;4.63;;;;;;;;;;5114301;28;20191;-69
2022/01/21 00:54:03;;;;;;;27.25;4.00;;;;;;;;;;5113949;28;20079;-68
2022/01/21 00:56:29;;;;;;;24.45;4.55;;;;;;;;;;5113571;28;20044;-68
2022/01/21 00:58:55;;;;;;;24.85;4.55;;;;;;;;;;5113487;28;20051;-69
2022/01/21 01:01:21;;;;;;;26.08;4.88;;;;;;;;;;5113467;28;20044;-69
2022/01/21 01:03:47;;;;;;;24.15;4.55;;;;;;;;;;5113692;28;20044;-69
2022/01/21 01:06:13;;;;;;;49.33;5.32;;;;;;;;;;5113869;28;20128;-69
2022/01/21 01:08:39;;;;;;;26.25;4.72;;;;;;;;;;5113441;28;20051;-69
2022/01/21 01:21:31;;;;;;;27.48;5.03;;;;;;;;;;5129145;28;20083;-69
2022/01/21 01:27:36;;;;;;;27.02;5.28;;;;;;;;;;5113242;28;20043;-70
2022/01/21 01:29:35;;;;;;;26.70;4.25;;;;;;;;;;5117091;28;20059;-70
2022/01/21 01:32:01;;;;;;;25.23;5.03;;;;;;;;;;5117094;28;20102;-69
2022/01/21 01:34:27;;;;;;;23.45;4.28;;;;;;;;;;5099486;28;20047;-70
2022/01/21 01:36:58;;;;;;;24.65;3.90;;;;;;;;;;5117216;28;20134;-69
2022/01/21 01:42:14;;;;;;;20.40;3.72;;;;;;;;;;5100013;28;20507;-69
2022/01/21 01:50:29;;;;;;;16.63;3.22;;;;;;;;;;5116993;28;20055;-70
2022/01/21 01:52:55;;;;;;;17.15;3.10;;;;;;;;;;5116887;28;20039;-70
2022/01/21 01:55:21;;;;;;;10.57;2.33;;;;;;;;;;5116781;28;20084;-70
2022/01/21 01:57:47;;;;;;;;;;;;;;;;;;5116887;28;20411;-72
2022/01/21 02:00:13;;;;;;;20.17;3.30;;;;;;;;;;5116881;28;19919;-70
2022/01/21 02:02:39;;;;;;;13.27;2.50;;;;;;;;;;5099244;28;20039;-68
2022/01/21 02:05:06;;;;;;;13.23;2.67;;;;;;;;;;5116181;28;20391;-72
2022/01/21 02:07:33;;;;;;;17.80;2.40;;;;;;;;;;5116638;28;20051;-72
2022/01/21 02:09:59;;;;;;;13.73;2.33;;;;;;;;;;5116584;28;20090;-75
2022/01/21 02:12:25;;;;;;;16.45;2.70;;;;;;;;;;5098561;28;20062;-70
2022/01/21 02:14:54;;;;;;;18.80;3.42;;;;;;;;;;5116548;28;20054;-71
2022/01/21 02:22:52;;;;;;;14.10;2.80;;;;;;;;;;5116330;28;20047;-71
2022/01/21 02:25:19;;;;;;;15.13;3.08;;;;;;;;;;5116345;28;20379;-70
2022/01/21 02:27:49;;;;;;;16.50;3.55;;;;;;;;;;5116959;28;20101;-71
2022/01/21 02:30:19;;;;;;;11.10;2.70;;;;;;;;;;5116126;28;20063;-72
2022/01/21 02:32:46;;;;;;;13.83;2.57;;;;;;;;;;5116580;28;20462;-72
2022/01/21 02:35:13;;;;;;;16.10;3.00;;;;;;;;;;5116012;28;20054;-70
2022/01/21 02:37:39;;;;;;;;;;;;;;;;;;5116635;28;20098;-70
2022/01/21 02:40:06;;;;;;;17.70;3.30;;;;;;;;;;5132172;27;19926;-70
2022/01/21 02:42:32;;;;;;;11.88;2.65;;;;;;;;;;5116063;28;20119;-71
2022/01/21 02:44:59;;;;;;;12.57;2.55;;;;;;;;;;5115946;28;20096;-71
2022/01/21 02:47:25;;;;;;;;;;;;;;;;;;5116690;28;20167;-72
2022/01/21 02:49:51;;;;;;;10.60;2.20;;;;;;;;;;5115743;28;20365;-74
2022/01/21 02:52:19;;;;;;;13.80;2.38;;;;;;;;;;5097848;28;20356;-73
2022/01/21 02:54:45;;;;;;;14.27;2.30;;;;;;;;;;5115716;28;20579;-71
2022/01/21 02:57:12;;;;;;;11.75;2.63;;;;;;;;;;5115622;28;20043;-73
2022/01/21 02:59:38;;;;;;;13.52;2.45;;;;;;;;;;5132067;27;20040;-72
2022/01/21 03:02:05;;;;;;;9.15;2.20;;;;;;;;;;5115372;28;20126;-71
2022/01/21 03:04:37;;;;;;;;;;;;;;;;;;5115880;28;20039;-72
2022/01/21 03:07:03;;;;;;;11.23;2.00;;;;;;;;;;5115568;28;19942;-73
2022/01/21 03:09:30;;;;;;;11.55;2.10;;;;;;;;;;5097003;28;20395;-71
2022/01/21 03:11:56;;;;;;;12.20;2.20;;;;;;;;;;5115449;28;20039;-72
2022/01/21 03:14:22;;;;;;;11.07;2.50;;;;;;;;;;5115177;28;20079;-72
2022/01/21 03:16:49;;;;;;;11.13;2.10;;;;;;;;;;5115274;28;20052;-71
2022/01/21 03:19:15;;;;;;;10.43;2.08;;;;;;;;;;5114741;27;20059;-70
2022/01/21 03:21:41;;;;;;;11.25;2.08;;;;;;;;;;5114223;28;20056;-71
2022/01/21 03:24:07;;;;;;;12.90;2.53;;;;;;;;;;5115144;28;20039;-71
2022/01/21 03:26:33;;;;;;;11.38;2.42;;;;;;;;;;5112596;28;20542;-71
2022/01/21 03:29:01;;;;;;;11.73;2.38;;;;;;;;;;5115523;28;20111;-71
2022/01/21 03:31:27;;;;;;;13.50;2.70;;;;;;;;;;5114873;28;20039;-70
2022/01/21 03:33:54;;;;;;;17.13;2.83;;;;;;;;;;5115111;28;20395;-70
2022/01/21 03:36:19;;;;;;;;;;;;;;;;;;5115252;28;20051;-70
2022/01/21 03:38:46;;;;;;;14.57;2.87;;;;;;;;;;5097550;28;19920;-70
2022/01/21 03:41:12;;;;;;;13.52;2.72;;;;;;;;;;5114807;28;20050;-71
2022/01/21 03:43:38;;;;;;;18.17;3.10;;;;;;;;;;5115126;28;20039;-72
2022/01/21 03:46:04;;;;;;;14.50;2.88;;;;;;;;;;5114986;28;20361;-70
2022/01/21 03:48:30;;;;;;;20.10;3.60;;;;;;;;;;5096577;28;20387;-70
2022/01/21 03:50:56;;;;;;;;;;;;;;;;;;5095903;28;20047;-71
2022/01/21 03:53:22;;;;;;;17.83;3.63;;;;;;;;;;5114711;28;19926;-70
2022/01/21 03:55:48;;;;;;;17.88;3.10;;;;;;;;;;5096679;28;20126;-70
2022/01/21 03:58:15;;;;;;;17.15;3.00;;;;;;;;;;5114977;28;20111;-72
2022/01/21 04:00:52;;;;;;;21.45;3.20;;;;;;;;;;5096348;28;20044;-70
2022/01/21 04:03:18;;;;;;;18.13;3.50;;;;;;;;;;5114304;28;20040;-70
2022/01/21 04:05:44;;;;;;;17.42;3.30;;;;;;;;;;5114864;28;20051;-70
2022/01/21 04:08:11;;;;;;;18.45;2.78;;;;;;;;;;5114994;28;20097;-70
2022/01/21 04:10:41;;;;;;;20.60;3.72;;;;;;;;;;5114390;28;20051;-70
2022/01/21 04:13:14;;;;;;;17.85;2.95;;;;;;;;;;5114893;28;20383;-70
2022/01/21 04:15:40;;;;;;;24.13;3.13;;;;;;;;;;5114089;28;20523;-70
2022/01/21 04:18:06;;;;;;;35.03;4.20;;;;;;;;;;5113976;28;20483;-70
2022/01/21 04:20:32;;;;;;;22.20;3.70;;;;;;;;;;5113966;28;20054;-70
2022/01/21 04:22:58;;;;;;;18.85;3.53;;;;;;;;;;5114030;28;20066;-70
2022/01/21 04:25:24;;;;;;;20.50;3.80;;;;;;;;;;5114095;28;20464;-69
2022/01/21 04:27:50;;;;;;;19.27;3.53;;;;;;;;;;5114113;28;20563;-70
2022/01/21 04:30:16;;;;;;;19.05;4.05;;;;;;;;;;5113907;28;20096;-70
2022/01/21 04:32:42;;;;;;;23.25;3.58;;;;;;;;;;5096415;28;20460;-70
2022/01/21 04:35:09;;;;;;;21.30;4.05;;;;;;;;;;5113811;28;20050;-70
2022/01/21 04:37:38;;;;;;;;;;;;;;;;;;5114078;28;20137;-70
2022/01/21 04:40:09;;;;;;;19.30;4.07;;;;;;;;;;5114219;28;19926;-70
2022/01/21 04:48:05;;;;;;;30.13;4.47;;;;;;;;;;5113693;28;20047;-70
2022/01/21 04:50:39;;;;;;;17.25;3.60;;;;;;;;;;5113574;28;20051;-70
2022/01/21 04:53:06;;;;;;;23.77;3.70;;;;;;;;;;5113520;28;20054;-70
2022/01/21 04:55:33;;;;;;;19.67;3.40;;;;;;;;;;5113889;28;20480;-70
2022/01/21 04:57:59;;;;;;;21.70;3.55;;;;;;;;;;5114283;28;20051;-70
2022/01/21 05:00:25;;;;;;;19.02;3.45;;;;;;;;;;5113680;28;20094;-70
2022/01/21 05:02:51;;;;;;;21.83;3.60;;;;;;;;;;5095699;28;20043;-70
2022/01/21 05:05:17;;;;;;;17.83;3.45;;;;;;;;;;5095296;28;20051;-70
2022/01/21 05:07:43;;;;;;;15.18;2.75;;;;;;;;;;5113325;28;20101;-70
2022/01/21 05:10:10;;;;;;;16.08;2.90;;;;;;;;;;5113376;28;20039;-72
2022/01/21 05:12:36;;;;;;;16.02;2.50;;;;;;;;;;5113363;28;20391;-73
2022/01/21 05:15:12;;;;;;;17.52;3.22;;;;;;;;;;5129481;28;20108;-72
2022/01/21 05:17:45;;;;;;;15.40;3.13;;;;;;;;;;5113838;28;20050;-70
2022/01/21 05:20:12;;;;;;;12.25;2.80;;;;;;;;;;5113444;28;20055;-72
2022/01/21 05:22:38;;;;;;;26.27;3.90;;;;;;;;;;5113438;28;20087;-72
2022/01/21 05:25:04;;;;;;;;;;;;;;;;;;5113699;28;20048;-71
2022/01/21 05:27:31;;;;;;;19.65;3.28;;;;;;;;;;5125879;28;19920;-71
2022/01/21 05:29:57;;;;;;;22.67;3.83;;;;;;;;;;5092798;28;20056;-71
2022/01/21 05:32:23;;;;;;;16.42;3.00;;;;;;;;;;5092817;28;20060;-72
2022/01/21 05:34:49;;;;;;;17.15;3.42;;;;;;;;;;5093393;28;20047;-71
2022/01/21 05:37:15;;;;;;;20.65;3.30;;;;;;;;;;5093045;28;20055;-71
2022/01/21 05:39:41;;;;;;;22.30;3.63;;;;;;;;;;5092675;28;20104;-71
2022/01/21 05:42:08;;;;;;;20.25;3.38;;;;;;;;;;5093013;28;20047;-71
2022/01/21 05:47:03;;;;;;;15.88;3.13;;;;;;;;;;5091557;28;20045;-71
2022/01/21 05:49:31;;;;;;;22.05;3.55;;;;;;;;;;5092696;28;20067;-71
2022/01/21 05:52:06;;;;;;;20.48;3.58;;;;;;;;;;5092623;28;20044;-71
2022/01/21 05:54:32;;;;;;;15.95;3.47;;;;;;;;;;5092594;28;20052;-71
2022/01/21 05:57:00;;;;;;;22.52;3.45;;;;;;;;;;5093139;28;20159;-71
2022/01/21 05:59:27;;;;;;;21.10;3.47;;;;;;;;;;5126094;28;20084;-72
2022/01/21 06:01:53;;;;;;;21.05;3.97;;;;;;;;;;5092512;28;20463;-72
2022/01/21 06:04:19;;;;;;;19.05;3.00;;;;;;;;;;5091306;28;20051;-72
2022/01/21 06:06:45;;;;;;;;;;;;;;;;;;5092918;28;20055;-71
2022/01/21 06:09:11;;;;;;;15.25;3.42;;;;;;;;;;5092554;28;19920;-72
2022/01/21 06:11:38;;;;;;;19.63;3.70;;;;;;;;;;5092378;28;20048;-70
2022/01/21 06:14:05;;;;;;;13.93;3.08;;;;;;;;;;5095599;28;20048;-71
2022/01/21 06:16:31;;;;;;;;;;;;;;;;;;5096521;28;20161;-70
2022/01/21 06:18:57;;;;;;;16.23;3.05;;;;;;;;;;5096478;28;20019;-73
2022/01/21 06:21:23;;;;;;;15.05;2.88;;;;;;;;;;5096498;28;20048;-72
2022/01/21 06:23:49;;;;;;;17.90;3.22;;;;;;;;;;5094761;28;20048;-73
2022/01/21 06:26:15;;;;;;;26.88;4.10;;;;;;;;;;5095027;28;20052;-71
2022/01/21 06:28:41;;;;;;;19.92;4.13;;;;;;;;;;5114585;28;20060;-71
2022/01/21 06:31:07;;;;;;;13.38;3.25;;;;;;;;;;5116258;28;20047;-71
2022/01/21 06:33:33;;;;;;;22.63;3.22;;;;;;;;;;5116187;28;20040;-71
2022/01/21 06:36:00;;;;;;;19.65;3.53;;;;;;;;;;5116317;28;20566;-71
2022/01/21 06:38:27;;;;;;;18.33;3.97;;;;;;;;;;5098600;28;20456;-71
2022/01/21 06:40:53;;;;;;;20.05;2.97;;;;;;;;;;5116014;28;20063;-71
2022/01/21 06:43:20;;;;;;;19.15;3.17;;;;;;;;;;5116001;28;20122;-71
2022/01/21 06:45:46;;;;;;;17.70;3.33;;;;;;;;;;5115027;27;20490;-71
2022/01/21 06:48:12;;;;;;;18.58;3.40;;;;;;;;;;5132750;27;20058;-71
2022/01/21 06:50:39;;;;;;;15.80;3.42;;;;;;;;;;5115090;28;20577;-71
2022/01/21 06:53:05;;;;;;;15.77;3.38;;;;;;;;;;5116156;28;20051;-71
2022/01/21 06:55:31;;;;;;;26.25;3.28;;;;;;;;;;5115731;28;20048;-71
2022/01/21 06:57:58;;;;;;;17.85;4.07;;;;;;;;;;5115663;28;20043;-71
2022/01/21 07:00:24;;;;;;;20.52;3.75;;;;;;;;;;5116184;28;20043;-71
2022/01/21 07:02:51;;;;;;;20.92;3.30;;;;;;;;;;5115444;28;20047;-71
2022/01/21 07:05:18;;;;;;;17.35;3.42;;;;;;;;;;5116285;28;20112;-71
2022/01/21 07:07:44;;;;;;;16.73;3.53;;;;;;;;;;5097215;28;20130;-71
2022/01/21 07:10:12;;;;;;;17.80;3.35;;;;;;;;;;5115967;28;20395;-71
2022/01/21 07:12:39;;;;;;;20.02;4.30;;;;;;;;;;5115328;28;20051;-71
2022/01/21 07:15:06;;;;;;;26.23;4.03;;;;;;;;;;5115588;28;20051;-71
2022/01/21 07:17:32;;;;;;;19.90;4.13;;;;;;;;;;5115480;28;20468;-71
2022/01/21 07:19:58;;;;;;;23.30;5.03;;;;;;;;;;5115244;28;20047;-71
2022/01/21 07:22:24;;;;;;;17.40;4.00;;;;;;;;;;5115091;28;20191;-71
2022/01/21 07:24:50;;;;;;;20.80;4.18;;;;;;;;;;5096253;28;20411;-71
2022/01/21 07:27:17;;;;;;;16.40;3.63;;;;;;;;;;5112214;28;20048;-71
2022/01/21 07:29:44;;;;;;;23.10;4.40;;;;;;;;;;5114862;28;20054;-70
2022/01/21 07:32:10;;;;;;;20.20;4.35;;;;;;;;;;5115069;28;20047;-71
2022/01/21 07:34:36;;;;;;;23.33;5.22;;;;;;;;;;5114888;28;20039;-71
2022/01/21 07:37:02;;;;;;;23.58;4.88;;;;;;;;;;5114661;28;20056;-70
2022/01/21 07:39:28;;;;;;;;;;;;;;;;;;5114257;28;20102;-70
2022/01/21 07:41:54;;;;;;;25.52;5.13;;;;;;;;;;5113263;28;20413;-71
2022/01/21 07:44:21;;;;;;;17.15;5.50;;;;;;;;;;5112183;28;20044;-71
2022/01/21 07:46:47;;;;;;;27.25;5.72;;;;;;;;;;5112465;28;20387;-70
2022/01/21 07:49:15;;;;;;;25.77;4.50;;;;;;;;;;5112960;28;20048;-70
2022/01/21 07:51:41;;;;;;;20.17;4.32;;;;;;;;;;5112271;28;20130;-71
2022/01/21 07:54:07;;;;;;;;;;;;;;;;;;5112632;28;20040;-71
2022/01/21 07:56:34;;;;;;;24.20;5.13;;;;;;;;;;5112168;28;19926;-71
2022/01/21 07:59:01;;;;;;;26.40;4.90;;;;;;;;;;5112068;28;20043;-71
2022/01/21 08:01:30;;;;;;;21.95;4.70;;;;;;;;;;5112021;28;20048;-71
2022/01/21 08:03:56;;;;;;;21.58;4.63;;;;;;;;;;5112015;28;20044;-71
2022/01/21 08:06:23;;;;;;;31.70;5.65;;;;;;;;;;5112261;28;20046;-72
2022/01/21 08:08:49;;;;;;;;;;;;;;;;;;5112314;28;20039;-71
2022/01/21 08:11:15;;;;;;;26.65;5.97;;;;;;;;;;5112551;28;19924;-71
2022/01/21 08:13:42;;;;;;;30.45;5.70;;;;;;;;;;5112199;28;20434;-71
2022/01/21 08:16:08;;;;;;;27.58;4.88;;;;;;;;;;5112120;28;20101;-72
2022/01/21 08:18:36;;;;;;;28.02;5.10;;;;;;;;;;5112479;28;20336;-72
2022/01/21 08:21:02;;;;;;;24.77;5.13;;;;;;;;;;5128175;27;20085;-72
2022/01/21 08:23:28;;;;;;;20.83;4.93;;;;;;;;;;5111754;28;20040;-73
2022/01/21 08:25:54;;;;;;;26.55;4.35;;;;;;;;;;5112053;28;20479;-71
2022/01/21 08:28:20;;;;;;;26.25;4.53;;;;;;;;;;5111920;28;20478;-71
2022/01/21 08:30:46;;;;;;;29.15;5.00;;;;;;;;;;5112215;28;20048;-71
2022/01/21 08:33:15;;;;;;;22.75;4.65;;;;;;;;;;5111390;28;20044;-71
2022/01/21 08:35:41;;;;;;;23.13;4.23;;;;;;;;;;5093434;28;20075;-71
2022/01/21 08:38:07;;;;;;;30.95;4.68;;;;;;;;;;5111380;28;20043;-71
2022/01/21 08:40:35;;;;;;;27.88;5.20;;;;;;;;;;5111414;28;20039;-72
2022/01/21 08:43:02;;;;;;;27.85;5.43;;;;;;;;;;5093203;28;20055;-72
2022/01/21 08:45:29;;;;;;;;;;;;;;;;;;5111790;28;20050;-72
2022/01/21 08:47:55;;;;;;;29.80;5.00;;;;;;;;;;5111157;28;19924;-71
2022/01/21 08:50:22;;;;;;;25.98;4.97;;;;;;;;;;5111202;28;20039;-71
2022/01/21 08:52:49;;;;;;;30.33;5.15;;;;;;;;;;5111189;28;20036;-72
2022/01/21 08:55:17;;;;;;;24.77;5.63;;;;;;;;;;5111549;28;20169;-72
2022/01/21 08:57:44;;;;;;;23.42;5.03;;;;;;;;;;5111175;28;20162;-72
2022/01/21 09:00:20;;;;;;;29.25;5.75;;;;;;;;;;5111217;28;20043;-72
2022/01/21 09:02:47;;;;;;;33.67;5.38;;;;;;;;;;5111111;28;20122;-72
2022/01/21 09:05:13;;;;;;;34.08;6.05;;;;;;;;;;5111000;28;20043;-71
2022/01/21 09:07:39;;;;;;;;;;;;;;;;;;5111412;28;20097;-71
2022/01/21 09:10:06;;;;;;;28.98;4.85;;;;;;;;;;5110994;28;19928;-70
2022/01/21 09:12:32;;;;;;;37.47;6.72;;;;;;;;;;5111270;28;20043;-71
2022/01/21 09:14:58;;;;;;;;;;;;;;;;;;5111755;28;20043;-71
2022/01/21 09:17:25;;;;;;;28.15;4.75;;;;;;;;;;5111174;28;20335;-72
2022/01/21 09:19:56;;;;;;;38.55;6.22;;;;;;;;;;5111005;28;20048;-71
2022/01/21 09:22:22;;;;;;;30.17;5.45;;;;;;;;;;5127597;28;20047;-71
2022/01/21 09:24:48;;;;;;;29.05;5.22;;;;;;;;;;5111241;28;20120;-71
2022/01/21 09:27:14;;;;;;;29.40;5.45;;;;;;;;;;5110917;28;20216;-72
2022/01/21 09:29:41;;;;;;;32.67;5.72;;;;;;;;;;5111026;28;20055;-71
2022/01/21 09:32:07;;;;;;;31.25;5.80;;;;;;;;;;5093946;28;20379;-72
2022/01/21 09:34:33;;;;;;;34.78;5.88;;;;;;;;;;5127331;28;20467;-70
2022/01/21 09:37:00;;;;;;;31.05;5.03;;;;;;;;;;5110433;28;20101;-71
2022/01/21 09:39:28;;;;;;;39.00;5.93;;;;;;;;;;5093348;28;20387;-71
2022/01/21 09:41:59;;;;;;;29.85;5.75;;;;;;;;;;5111841;28;20098;-71
2022/01/21 09:44:25;;;;;;;36.83;5.95;;;;;;;;;;5110927;28;20476;-71
2022/01/21 09:46:53;;;;;;;27.25;5.97;;;;;;;;;;5111767;28;20078;-72
2022/01/21 09:51:52;;;;;;;36.33;5.78;;;;;;;;;;5097513;28;20134;-71
2022/01/21 09:54:18;;;;;;;26.80;5.07;;;;;;;;;;5114998;28;20044;-71
2022/01/21 09:56:45;;;;;;;34.05;5.45;;;;;;;;;;5115151;28;20052;-71
2022/01/21 09:59:12;;;;;;;40.53;5.88;;;;;;;;;;5115077;28;20052;-71
2022/01/21 10:01:38;;;;;;;37.97;6.18;;;;;;;;;;5114933;28;20447;-72
2022/01/21 10:04:05;;;;;;;31.10;6.05;;;;;;;;;;5115455;28;20036;-71
2022/01/21 10:06:32;;;;;;;30.65;6.45;;;;;;;;;;5114760;28;20539;-71
2022/01/21 10:08:58;;;;;;;31.20;6.88;;;;;;;;;;5115412;28;20055;-71
2022/01/21 10:11:26;;;;;;;36.25;6.65;;;;;;;;;;5115110;28;20093;-71
2022/01/21 10:13:52;;;;;;;28.30;5.60;;;;;;;;;;5115002;28;20050;-72
2022/01/21 10:16:19;;;;;;;28.50;5.47;;;;;;;;;;5114662;28;20087;-72
2022/01/21 10:18:45;;;;;;;;;;;;;;;;;;5097201;28;20043;-71
2022/01/21 10:21:12;;;;;;;34.15;7.38;;;;;;;;;;5114679;28;19920;-71
2022/01/21 10:23:42;;;;;;;37.83;5.55;;;;;;;;;;5130746;27;20052;-71
2022/01/21 10:26:09;;;;;;;23.20;4.72;;;;;;;;;;5079719;28;20501;-71
2022/01/21 10:28:36;;;;;;;25.13;4.50;;;;;;;;;;5092537;28;20064;-71
2022/01/21 10:31:07;;;;;;;34.55;5.65;;;;;;;;;;5094420;28;20062;-71
2022/01/21 10:33:37;;;;;;;24.48;4.72;;;;;;;;;;5094061;28;20107;-72
2022/01/21 10:36:12;;;;;;;26.83;4.93;;;;;;;;;;5094088;28;20051;-72
2022/01/21 10:38:39;;;;;;;27.35;4.60;;;;;;;;;;5094614;28;20124;-70
2022/01/21 10:41:07;;;;;;;28.35;4.90;;;;;;;;;;5093842;28;20058;-76
2022/01/21 10:43:33;;;;;;;37.75;5.13;;;;;;;;;;5092565;28;20052;-75
2022/01/21 10:46:00;;;;;;;29.52;5.30;;;;;;;;;;5094245;28;20066;-76
2022/01/21 10:48:29;;;;;;;32.55;5.25;;;;;;;;;;5093744;28;20044;-76
2022/01/21 10:51:20;;;;;;;30.17;5.80;;;;;;;;;;5094165;28;20044;-76
2022/01/21 10:53:46;;;;;;;29.35;5.75;;;;;;;;;;5092402;28;20044;-77
2022/01/21 10:56:15;;;;;;;28.20;5.65;;;;;;;;;;5092596;28;20047;-76
2022/01/21 10:58:43;;;;;;;30.35;5.30;;;;;;;;;;5093111;28;20044;-76
2022/01/21 11:01:13;;;;;;;31.45;5.28;;;;;;;;;;5093364;28;20164;-75
2022/01/21 11:03:55;;;;;;;29.00;4.68;;;;;;;;;;5091935;28;20048;-74
2022/01/21 11:06:24;;;;;;;29.13;4.65;;;;;;;;;;5093756;28;20120;-75
2022/01/21 11:08:50;;;;;;;22.90;3.97;;;;;;;;;;5092252;28;20090;-75
2022/01/21 11:11:23;;;;;;;26.75;4.75;;;;;;;;;;5093834;28;20056;-75
2022/01/21 11:13:49;;;;;;;25.48;3.72;;;;;;;;;;5092443;28;20352;-75
2022/01/21 11:16:20;;;;;;;32.35;5.07;;;;;;;;;;5093612;28;20047;-70
2022/01/21 11:18:51;;;;;;;31.25;4.43;;;;;;;;;;5093226;28;20040;-73
2022/01/21 11:21:17;;;;;;;31.42;4.50;;;;;;;;;;5093012;28;20048;-74
2022/01/21 11:23:43;;;;;;;31.95;4.63;;;;;;;;;;5093005;28;20040;-75
2022/01/21 11:26:10;;;;;;;28.35;4.72;;;;;;;;;;5093622;28;20040;-74
2022/01/21 11:28:39;;;;;;;31.13;4.82;;;;;;;;;;5108230;28;20067;-73
2022/01/21 11:31:06;;;;;;;19.13;3.95;;;;;;;;;;5113518;28;20047;-70
2022/01/21 11:33:32;;;;;;;32.45;5.10;;;;;;;;;;5113067;28;20127;-71
2022/01/21 11:35:58;;;;;;;23.23;4.18;;;;;;;;;;5113200;28;20233;-71
2022/01/21 11:38:28;;;;;;;31.55;5.18;;;;;;;;;;5094880;28;20051;-72
2022/01/21 11:40:54;;;;;;;25.92;4.20;;;;;;;;;;5113549;28;20154;-72
2022/01/21 11:43:21;;;;;;;27.25;4.38;;;;;;;;;;5112877;28;20051;-71
2022/01/21 11:50:53;;;;;;;22.08;3.78;;;;;;;;;;5113430;28;20058;-73
2022/01/21 11:53:42;;;;;;;25.55;3.90;;;;;;;;;;5112749;28;20127;-69
2022/01/21 11:56:28;;;;;;;25.63;4.35;;;;;;;;;;5102847;28;20134;-70
2022/01/21 11:59:06;;;;;;;27.02;4.63;;;;;;;;;;5113567;28;20056;-71
2022/01/21 12:01:40;;;;;;;19.35;3.13;;;;;;;;;;5113389;28;20546;-72
2022/01/21 12:04:06;;;;;;;23.42;4.13;;;;;;;;;;5113036;28;20483;-72
2022/01/21 12:06:34;;;;;;;27.10;4.20;;;;;;;;;;5113115;28;20094;-70
2022/01/21 12:09:01;;;;;;;21.33;3.45;;;;;;;;;;5112653;28;20047;-74
2022/01/21 12:11:32;;;;;;;24.88;3.72;;;;;;;;;;5111709;28;20052;-75
2022/01/21 12:13:59;;;;;;;20.80;3.67;;;;;;;;;;5112472;28;20092;-71
2022/01/21 12:16:51;;;;;;;27.15;4.03;;;;;;;;;;5129112;27;20051;-71
2022/01/21 12:19:26;;;;;;;26.33;3.75;;;;;;;;;;5112620;28;20048;-72
2022/01/21 12:21:53;;;;;;;18.90;4.22;;;;;;;;;;5112648;28;20044;-72
2022/01/21 12:24:42;;;;;;;19.98;3.38;;;;;;;;;;5112268;28;20040;-71
2022/01/21 12:27:09;;;;;;;16.92;3.20;;;;;;;;;;5099100;28;20079;-75
2022/01/21 12:29:36;;;;;;;20.80;3.50;;;;;;;;;;5112255;28;20556;-72
2022/01/21 12:32:07;;;;;;;23.85;4.30;;;;;;;;;;5112318;28;20077;-72
2022/01/21 12:34:52;;;;;;;20.30;3.28;;;;;;;;;;5112501;28;20122;-75
2022/01/21 12:37:23;;;;;;;25.92;4.65;;;;;;;;;;5111986;28;20073;-72
2022/01/21 12:39:50;;;;;;;22.75;4.22;;;;;;;;;;5112600;28;20047;-71
2022/01/21 12:42:25;;;;;;;26.45;3.88;;;;;;;;;;5112200;28;20055;-73
2022/01/21 12:45:06;;;;;;;24.95;3.72;;;;;;;;;;5112049;28;20554;-76
2022/01/21 12:47:41;;;;;;;32.65;4.40;;;;;;;;;;5111951;28;20048;-68
2022/01/21 12:50:15;;;;;;;24.17;4.18;;;;;;;;;;5111306;28;20544;-74
2022/01/21 12:52:49;;;;;;;26.73;4.55;;;;;;;;;;5127766;27;20083;-79
2022/01/21 12:58:06;;;;;;;17.63;3.72;;;;;;;;;;5112127;28;20098;-72
2022/01/21 13:00:32;;;;;;;19.20;3.90;;;;;;;;;;5111036;28;20488;-78
2022/01/21 13:03:02;;;;;;;17.35;3.63;;;;;;;;;;5110906;28;20514;-80
2022/01/21 13:05:32;;;;;;;24.60;3.60;;;;;;;;;;5111922;28;20070;-73
2022/01/21 13:08:08;;;;;;;25.45;4.43;;;;;;;;;;5111667;28;20075;-75
2022/01/21 13:10:34;;;;;;;28.67;4.53;;;;;;;;;;5112028;28;20189;-74
2022/01/21 13:15:39;;;;;;;26.48;5.05;;;;;;;;;;5112157;28;20051;-71
2022/01/21 13:18:06;;;;;;;21.67;4.03;;;;;;;;;;5111487;28;20052;-80
2022/01/21 13:20:39;;;;;;;20.33;3.38;;;;;;;;;;5093376;28;20047;-73
2022/01/21 13:23:05;;;;;;;34.72;4.80;;;;;;;;;;5115117;28;20052;-74
2022/01/21 13:25:33;;;;;;;24.27;3.83;;;;;;;;;;5131650;27;20054;-80
2022/01/21 13:28:01;;;;;;;24.27;4.57;;;;;;;;;;5115446;28;20531;-70
2022/01/21 13:30:29;;;;;;;26.13;5.05;;;;;;;;;;5116165;28;20063;-87
2022/01/21 13:32:59;;;;;;;28.88;4.68;;;;;;;;;;5115385;28;20463;-72
2022/01/21 13:35:26;;;;;;;26.00;4.18;;;;;;;;;;5116072;28;20044;-75
2022/01/21 13:38:03;;;;;;;25.85;4.63;;;;;;;;;;5097386;28;20146;-79
2022/01/21 13:40:33;;;;;;;40.58;5.22;;;;;;;;;;5115002;28;20079;-70
2022/01/21 13:43:12;;;;;;;23.45;4.38;;;;;;;;;;5115301;28;20036;-73
2022/01/21 13:45:40;;;;;;;27.52;4.60;;;;;;;;;;5115485;28;20063;-71
2022/01/21 13:48:07;;;;;;;20.77;3.97;;;;;;;;;;5115395;28;20047;-71
2022/01/21 13:50:33;;;;;;;18.55;3.72;;;;;;;;;;5096650;28;20051;-75
2022/01/21 13:53:04;;;;;;;25.38;4.47;;;;;;;;;;5115339;28;20047;-73
2022/01/21 13:55:39;;;;;;;15.98;3.55;;;;;;;;;;5115281;28;20047;-82
2022/01/21 13:58:06;;;;;;;25.25;3.80;;;;;;;;;;5115304;28;20065;-75
2022/01/21 14:00:38;;;;;;;24.35;3.83;;;;;;;;;;5115380;28;20040;-73
2022/01/21 14:03:04;;;;;;;18.65;3.80;;;;;;;;;;5115243;28;20042;-73
2022/01/21 14:05:45;;;;;;;25.00;3.40;;;;;;;;;;5115120;28;20044;-73
2022/01/21 14:08:12;;;;;;;24.08;4.38;;;;;;;;;;5114629;28;20494;-74
2022/01/21 14:10:38;;;;;;;25.02;3.60;;;;;;;;;;5114191;28;20054;-73
2022/01/21 14:13:05;;;;;;;25.83;4.15;;;;;;;;;;5114223;28;20502;-74
2022/01/21 14:15:30;;;;;;;;;;;;;;;;;;5115099;28;20040;-75
2022/01/21 14:17:57;;;;;;;35.30;5.05;;;;;;;;;;5114402;28;19946;-71
2022/01/21 14:20:23;;;;;;;24.38;4.90;;;;;;;;;;5114570;28;20079;-71
2022/01/21 14:22:50;;;;;;;21.85;4.03;;;;;;;;;;5095630;28;20075;-72
2022/01/21 14:25:16;;;;;;;35.60;5.55;;;;;;;;;;5095995;28;20043;-72
2022/01/21 14:27:49;;;;;;;24.73;4.55;;;;;;;;;;5113840;28;20085;-75
2022/01/21 14:30:17;;;;;;;35.03;5.13;;;;;;;;;;5114622;28;20066;-71
2022/01/21 14:32:48;;;;;;;29.77;5.25;;;;;;;;;;5114141;28;20144;-73
2022/01/21 14:35:25;;;;;;;26.80;4.43;;;;;;;;;;5113772;28;20047;-78
2022/01/21 14:37:53;;;;;;;20.23;3.90;;;;;;;;;;5114114;28;20510;-72
2022/01/21 14:40:27;;;;;;;24.73;4.22;;;;;;;;;;5114592;28;20096;-73
2022/01/21 14:43:01;;;;;;;23.60;3.40;;;;;;;;;;5113438;27;20055;-72
2022/01/21 14:45:27;;;;;;;25.75;4.18;;;;;;;;;;5095941;28;20039;-71
2022/01/21 14:47:53;;;;;;;23.77;4.03;;;;;;;;;;5096312;28;20364;-72
2022/01/21 14:50:27;;;;;;;28.30;4.13;;;;;;;;;;5114675;28;20047;-73
2022/01/21 14:52:56;;;;;;;22.42;3.78;;;;;;;;;;5113911;28;20051;-75
2022/01/21 14:55:33;;;;;;;26.20;3.97;;;;;;;;;;5113753;28;20047;-73
2022/01/21 14:58:01;;;;;;;24.90;3.58;;;;;;;;;;5113392;28;20077;-71
2022/01/21 15:00:29;;;;;;;28.13;4.45;;;;;;;;;;5113109;28;20046;-70
2022/01/21 15:03:22;;;;;;;23.65;4.22;;;;;;;;;;5113089;28;20495;-73
2022/01/21 15:05:53;;;;;;;24.33;3.80;;;;;;;;;;5111370;28;20058;-72
2022/01/21 15:08:40;;;;;;;25.50;4.68;;;;;;;;;;5113473;28;20051;-74
2022/01/21 15:16:55;;;;;;;17.35;3.08;;;;;;;;;;5113131;28;20509;-74
2022/01/21 15:19:29;;;;;;;23.23;3.63;;;;;;;;;;5095828;28;20428;-73
2022/01/21 15:21:57;;;;;;;20.40;3.40;;;;;;;;;;5113476;28;20479;-78
2022/01/21 15:24:23;;;;;;;17.77;3.35;;;;;;;;;;5113188;28;20047;-74
2022/01/21 15:26:49;;;;;;;18.80;3.03;;;;;;;;;;5113165;28;20192;-73
2022/01/21 15:29:15;;;;;;;17.60;2.88;;;;;;;;;;5113339;28;20069;-74
2022/01/21 15:31:41;;;;;;;19.13;3.30;;;;;;;;;;5129132;27;20055;-78
2022/01/21 15:34:08;;;;;;;18.13;2.75;;;;;;;;;;5112244;28;20486;-75
2022/01/21 15:36:34;;;;;;;;;;;;;;;;;;5113559;28;20040;-73
2022/01/21 15:39:00;;;;;;;18.45;3.40;;;;;;;;;;5113964;28;20351;-76
2022/01/21 15:41:30;;;;;;;25.13;3.42;;;;;;;;;;5112940;28;20517;-73
2022/01/21 15:43:56;;;;;;;24.23;3.63;;;;;;;;;;5113486;28;20048;-75
2022/01/21 15:46:22;;;;;;;20.60;3.00;;;;;;;;;;5112453;28;20449;-73
2022/01/21 15:48:48;;;;;;;14.80;2.22;;;;;;;;;;5113453;28;20367;-81